createdAt,value
2023-01-19T00:04:05.799Z,6.50
2023-01-19T00:08:59.635Z,5.90
2023-01-19T00:13:54.149Z,6.05
2023-01-19T00:18:48.214Z,5.95
2023-01-19T00:23:42.638Z,6.15
2023-01-19T00:28:35.654Z,6.00
2023-01-19T00:33:29.509Z,6.22
2023-01-19T00:38:23.577Z,6.80
2023-01-19T00:43:21.175Z,6.35
2023-01-19T00:48:14.376Z,6.10
2023-01-19T00:53:07.709Z,6.30
2023-01-19T00:58:02.076Z,5.40
2023-01-19T01:02:55.965Z,5.93
2023-01-19T01:07:49.912Z,6.22
2023-01-19T01:13:20.397Z,6.40
2023-01-19T01:17:57.130Z,6.47
2023-01-19T01:22:52.758Z,6.15
2023-01-19T01:27:45.853Z,6.32
2023-01-19T01:32:39.166Z,6.22
2023-01-19T01:37:33.106Z,5.93
2023-01-19T01:42:35.884Z,6.05
2023-01-19T01:47:50.429Z,6.45
2023-01-19T01:53:06.311Z,6.03
2023-01-19T01:58:05.616Z,6.55
2023-01-19T02:03:01.175Z,6.35
2023-01-19T02:08:37.288Z,6.15
2023-01-19T02:13:37.515Z,6.45
2023-01-19T02:18:32.541Z,6.10
2023-01-19T02:23:38.243Z,5.70
2023-01-19T02:28:31.722Z,5.43
2023-01-19T02:33:30.467Z,5.45
2023-01-19T02:38:27.728Z,5.70
2023-01-19T02:43:21.221Z,5.20
2023-01-19T02:48:14.864Z,5.70
2023-01-19T02:53:35.338Z,6.05
2023-01-19T02:58:36.312Z,5.10
2023-01-19T03:03:33.392Z,5.95
2023-01-19T03:08:33.424Z,5.53
2023-01-19T03:13:41.959Z,6.03
2023-01-19T03:19:14.620Z,5.15
2023-01-19T03:24:09.162Z,5.43
2023-01-19T03:29:03.859Z,5.72
2023-01-19T03:34:02.870Z,5.60
2023-01-19T03:38:58.642Z,5.32
2023-01-19T03:43:53.551Z,6.00
2023-01-19T03:48:49.322Z,6.80
2023-01-19T03:53:42.282Z,5.13
2023-01-19T03:58:36.379Z,5.57
2023-01-19T04:03:30.355Z,5.82
2023-01-19T04:08:23.570Z,5.85
2023-01-19T04:13:16.778Z,5.30
2023-01-19T04:18:10.547Z,5.70
2023-01-19T04:23:04.645Z,5.30
2023-01-19T04:28:00.268Z,5.57
2023-01-19T04:32:56.311Z,5.60
2023-01-19T04:37:49.741Z,5.38
2023-01-19T04:42:47.178Z,5.43
2023-01-19T04:47:43.306Z,5.43
2023-01-19T04:52:37.130Z,5.75
2023-01-19T04:57:30.936Z,5.70
2023-01-19T05:02:25.040Z,5.93
2023-01-19T05:07:18.283Z,5.43
2023-01-19T05:12:12.222Z,6.05
2023-01-19T05:17:04.808Z,5.57
2023-01-19T05:21:58.034Z,5.85
2023-01-19T05:26:51.765Z,5.63
2023-01-19T05:31:45.531Z,5.70
2023-01-19T05:36:38.726Z,4.90
2023-01-19T05:41:32.585Z,4.70
2023-01-19T05:46:26.068Z,4.63
2023-01-19T05:51:19.493Z,4.43
2023-01-19T05:56:13.815Z,3.80
2023-01-19T06:01:10.475Z,3.90
2023-01-19T06:06:03.801Z,3.90
2023-01-19T06:10:57.741Z,3.45
2023-01-19T06:15:58.455Z,3.67
2023-01-19T06:20:53.112Z,3.92
2023-01-19T06:25:47.379Z,3.33
2023-01-19T06:30:41.078Z,3.10
2023-01-19T06:35:36.619Z,3.40
2023-01-19T06:40:30.545Z,2.70
2023-01-19T06:45:23.821Z,2.67
2023-01-19T06:50:18.139Z,3.00
2023-01-19T06:55:12.125Z,2.55
2023-01-19T07:00:09.903Z,2.50
2023-01-19T07:05:03.102Z,2.80
2023-01-19T07:09:56.176Z,2.75
2023-01-19T07:14:50.311Z,2.58
2023-01-19T07:19:44.046Z,2.50
2023-01-19T07:24:38.163Z,1.85
2023-01-19T07:29:32.185Z,2.47
2023-01-19T07:34:26.301Z,1.90
2023-01-19T07:39:20.323Z,1.70
2023-01-19T07:44:14.394Z,2.00
2023-01-19T07:49:08.717Z,2.03
2023-01-19T07:54:01.749Z,1.70
2023-01-19T07:58:54.753Z,2.17
2023-01-19T08:03:51.389Z,1.85
2023-01-19T08:08:45.670Z,1.63
2023-01-19T08:13:40.143Z,1.80
2023-01-19T08:18:33.335Z,2.00
2023-01-19T08:23:28.610Z,2.03
2023-01-19T08:28:22.748Z,2.15
2023-01-19T08:33:16.902Z,2.20
2023-01-19T08:38:10.824Z,2.28
2023-01-19T08:43:07.876Z,2.25
2023-01-19T08:48:00.970Z,2.33
2023-01-19T08:52:57.907Z,2.38
2023-01-19T08:57:55.320Z,2.40
2023-01-19T09:02:48.513Z,2.38
2023-01-19T09:07:42.293Z,3.38
2023-01-19T09:12:36.172Z,3.10
2023-01-19T09:17:29.480Z,3.05
2023-01-19T09:22:27.188Z,3.42
2023-01-19T09:27:20.664Z,3.10
2023-01-19T09:32:13.932Z,2.70
2023-01-19T09:37:08.506Z,3.00
2023-01-19T09:42:25.523Z,3.15
2023-01-19T09:47:24.369Z,2.70
2023-01-19T09:52:19.019Z,3.83
2023-01-19T09:57:13.107Z,3.78
2023-01-19T10:02:20.135Z,4.22
2023-01-19T10:07:29.786Z,3.53
2023-01-19T10:13:03.845Z,4.00
2023-01-19T10:18:12.813Z,4.18
2023-01-19T10:23:20.439Z,4.25
2023-01-19T10:28:16.438Z,4.32
2023-01-19T10:33:14.348Z,4.50
2023-01-19T10:38:07.075Z,4.28
2023-01-19T10:43:00.971Z,4.10
2023-01-19T10:47:56.298Z,3.70
2023-01-19T10:52:55.224Z,3.58
2023-01-19T10:57:52.250Z,3.38
2023-01-19T11:02:51.659Z,4.22
2023-01-19T11:07:45.413Z,4.20
2023-01-19T11:12:43.894Z,2.97
2023-01-19T11:17:38.154Z,3.17
2023-01-19T11:22:33.852Z,3.30
2023-01-19T11:27:27.828Z,3.15
2023-01-19T11:32:24.075Z,3.50
2023-01-19T11:37:17.150Z,3.20
2023-01-19T11:42:13.282Z,3.40
2023-01-19T11:47:12.166Z,3.60
2023-01-19T11:52:25.131Z,3.50
2023-01-19T11:57:20.603Z,2.90
2023-01-19T12:02:28.596Z,3.38
2023-01-19T12:07:29.806Z,3.28
2023-01-19T12:12:33.598Z,3.10
2023-01-19T12:17:34.914Z,3.40
2023-01-19T12:22:29.423Z,4.32
2023-01-19T12:27:39.464Z,4.20
2023-01-19T12:32:35.209Z,4.55
2023-01-19T12:37:40.183Z,4.63
2023-01-19T12:42:34.615Z,8.52
2023-01-19T12:47:28.407Z,11.15
2023-01-19T12:52:41.653Z,13.52
2023-01-19T12:57:41.028Z,20.27
2023-01-19T13:02:45.722Z,19.77
2023-01-19T13:08:03.942Z,13.55
2023-01-19T13:13:21.195Z,8.27
2023-01-19T13:18:22.549Z,5.28
2023-01-19T13:23:22.345Z,3.42
2023-01-19T13:28:18.030Z,3.03
2023-01-19T13:33:19.733Z,6.95
2023-01-19T13:38:14.223Z,9.77
2023-01-19T13:43:28.878Z,6.20
2023-01-19T13:48:24.584Z,5.70
2023-01-19T13:53:19.786Z,5.70
2023-01-19T13:58:25.596Z,5.72
2023-01-19T14:03:40.822Z,4.40
2023-01-19T14:08:38.069Z,4.40
2023-01-19T14:13:40.907Z,3.75
2023-01-19T14:18:35.616Z,3.17
2023-01-19T14:23:48.163Z,2.85
2023-01-19T14:28:44.598Z,1.98
2023-01-19T14:33:47.794Z,2.38
2023-01-19T14:39:04.436Z,1.67
2023-01-19T14:43:59.570Z,1.80
2023-01-19T14:48:58.511Z,1.30
2023-01-19T14:53:56.855Z,0.90
2023-01-19T14:58:51.639Z,1.00
2023-01-19T15:03:46.107Z,0.50
2023-01-19T15:08:39.737Z,0.82
2023-01-19T15:13:33.249Z,0.90
2023-01-19T15:18:28.876Z,0.60
2023-01-19T15:23:22.796Z,0.70
2023-01-19T15:28:19.356Z,0.80
2023-01-19T15:33:23.802Z,0.90
2023-01-19T15:38:17.277Z,0.75
2023-01-19T15:43:32.967Z,1.42
2023-01-19T15:48:43.340Z,0.90
2023-01-19T15:53:37.577Z,0.88
2023-01-19T15:58:31.477Z,0.90
2023-01-19T16:03:26.596Z,1.02
2023-01-19T16:08:20.471Z,0.80
2023-01-19T16:13:14.859Z,0.82
2023-01-19T16:18:08.720Z,0.90
2023-01-19T16:23:14.394Z,1.95
2023-01-19T16:28:09.258Z,1.15
2023-01-19T16:33:03.085Z,1.20
2023-01-19T16:37:56.514Z,1.00
2023-01-19T16:42:49.917Z,1.00
2023-01-19T16:47:46.203Z,0.98
2023-01-19T16:52:39.396Z,0.98
2023-01-19T16:57:32.728Z,1.20
2023-01-19T17:02:26.319Z,0.80
2023-01-19T17:07:19.567Z,0.60
2023-01-19T17:12:13.565Z,0.40
2023-01-19T17:17:10.179Z,0.50
2023-01-19T17:22:04.395Z,1.55
2023-01-19T17:26:56.778Z,1.00
2023-01-19T17:31:52.179Z,1.10
2023-01-19T17:36:46.511Z,1.10
2023-01-19T17:41:39.939Z,1.17
2023-01-19T17:46:36.758Z,1.05
2023-01-19T17:51:30.418Z,1.02
2023-01-19T17:56:29.280Z,1.13
2023-01-19T18:01:41.040Z,1.00
2023-01-19T18:06:34.462Z,1.35
2023-01-19T18:11:28.570Z,1.10
2023-01-19T18:16:27.017Z,1.00
2023-01-19T18:21:21.938Z,1.27
2023-01-19T18:26:20.620Z,1.15
2023-01-19T18:31:16.200Z,0.88
2023-01-19T18:36:10.196Z,0.95
2023-01-19T18:41:07.726Z,1.10
2023-01-19T18:46:00.587Z,1.10
2023-01-19T18:50:55.184Z,1.23
2023-01-19T18:55:56.762Z,1.13
2023-01-19T19:00:50.436Z,1.23
2023-01-19T19:05:45.060Z,1.77
2023-01-19T19:10:41.164Z,1.10
2023-01-19T19:15:35.336Z,1.30
2023-01-19T19:20:28.589Z,1.65
2023-01-19T19:25:21.675Z,1.33
2023-01-19T19:30:16.096Z,1.25
2023-01-19T19:35:09.046Z,1.30
2023-01-19T19:40:02.440Z,1.30
2023-01-19T19:44:56.185Z,1.15
2023-01-19T19:49:49.020Z,0.73
2023-01-19T19:54:43.041Z,1.27
2023-01-19T19:59:36.944Z,1.08
2023-01-19T20:04:31.070Z,1.38
2023-01-19T20:09:25.633Z,1.30
2023-01-19T20:14:19.341Z,1.40
2023-01-19T20:19:13.270Z,1.45
2023-01-19T20:24:18.191Z,1.52
2023-01-19T20:29:11.698Z,1.73
2023-01-19T20:34:07.500Z,1.60
2023-01-19T20:39:03.004Z,1.58
2023-01-19T20:43:56.805Z,2.22
2023-01-19T20:48:53.426Z,2.08
2023-01-19T20:53:46.616Z,1.48
2023-01-19T20:58:39.912Z,1.55
2023-01-19T21:03:32.000Z,1.48
2023-01-19T21:08:25.932Z,1.58
2023-01-19T21:13:18.948Z,1.63
2023-01-19T21:18:12.849Z,1.23
2023-01-19T21:23:06.051Z,1.10
2023-01-19T21:27:59.794Z,1.48
2023-01-19T21:32:53.182Z,1.38
2023-01-19T21:37:47.942Z,1.33
2023-01-19T21:42:41.323Z,1.60
2023-01-19T21:47:37.623Z,1.52
2023-01-19T21:52:32.000Z,1.40
2023-01-19T21:57:26.148Z,1.20
2023-01-19T22:02:37.727Z,1.25
2023-01-19T22:07:31.945Z,1.42
2023-01-19T22:12:26.124Z,1.58
2023-01-19T22:17:19.682Z,1.30
2023-01-19T22:22:13.374Z,1.27
2023-01-19T22:27:07.052Z,1.27
2023-01-19T22:32:00.766Z,1.52
2023-01-19T22:36:54.036Z,1.40
2023-01-19T22:41:47.692Z,1.40
2023-01-19T22:46:40.721Z,1.55
2023-01-19T22:51:35.018Z,1.40
2023-01-19T22:56:30.592Z,1.30
2023-01-19T23:01:26.378Z,1.20
2023-01-19T23:06:41.042Z,1.55
2023-01-19T23:11:36.822Z,1.30
2023-01-19T23:16:30.829Z,1.20
2023-01-19T23:21:26.385Z,1.30
2023-01-19T23:26:20.627Z,1.10
2023-01-19T23:31:19.486Z,1.13
2023-01-19T23:36:14.034Z,1.27
2023-01-19T23:41:07.830Z,1.40
2023-01-19T23:46:06.008Z,1.02
2023-01-19T23:50:58.506Z,1.13
2023-01-19T23:55:52.489Z,1.30
